sensor_id;sensor_type;location;lat;lon;timestamp;P1;P2;P0
47079;PMS5003;33067;49.296;14.470;2024-03-25T00:01:17;9;8;
47079;PMS5003;33067;49.296;14.470;2024-03-25T00:03:42;9;9;
47079;PMS5003;33067;49.296;14.470;2024-03-25T00:06:08;9;9;
47079;PMS5003;33067;49.296;14.470;2024-03-25T00:08:33;7;7;
47079;PMS5003;33067;49.296;14.470;2024-03-25T00:10:59;9;9;
47079;PMS5003;33067;49.296;14.470;2024-03-25T00:13:24;9;7;
47079;PMS5003;33067;49.296;14.470;2024-03-25T00:15:50;10;8;
47079;PMS5003;33067;49.296;14.470;2024-03-25T00:18:15;9;9;
47079;PMS5003;33067;49.296;14.470;2024-03-25T00:20:41;10;10;
47079;PMS5003;33067;49.296;14.470;2024-03-25T00:23:06;17;15;
47079;PMS5003;33067;49.296;14.470;2024-03-25T00:25:32;17;17;
47079;PMS5003;33067;49.296;14.470;2024-03-25T00:27:57;19;19;
47079;PMS5003;33067;49.296;14.470;2024-03-25T00:30:23;19;19;
47079;PMS5003;33067;49.296;14.470;2024-03-25T00:32:48;17;17;
47079;PMS5003;33067;49.296;14.470;2024-03-25T00:35:14;25;25;
47079;PMS5003;33067;49.296;14.470;2024-03-25T00:37:39;28;28;
47079;PMS5003;33067;49.296;14.470;2024-03-25T00:40:05;28;26;
47079;PMS5003;33067;49.296;14.470;2024-03-25T00:42:30;29;29;
47079;PMS5003;33067;49.296;14.470;2024-03-25T00:44:56;36;36;
47079;PMS5003;33067;49.296;14.470;2024-03-25T00:47:21;27;23;
47079;PMS5003;33067;49.296;14.470;2024-03-25T00:49:47;28;27;
47079;PMS5003;33067;49.296;14.470;2024-03-25T00:52:12;38;38;
47079;PMS5003;33067;49.296;14.470;2024-03-25T00:54:38;19;19;
47079;PMS5003;33067;49.296;14.470;2024-03-25T00:57:03;17;17;
47079;PMS5003;33067;49.296;14.470;2024-03-25T00:59:29;17;17;
47079;PMS5003;33067;49.296;14.470;2024-03-25T01:01:54;17;17;
47079;PMS5003;33067;49.296;14.470;2024-03-25T01:04:20;23;22;
47079;PMS5003;33067;49.296;14.470;2024-03-25T01:06:45;55;55;
47079;PMS5003;33067;49.296;14.470;2024-03-25T01:09:11;30;30;
47079;PMS5003;33067;49.296;14.470;2024-03-25T01:11:36;63;61;
47079;PMS5003;33067;49.296;14.470;2024-03-25T01:14:02;79;76;
47079;PMS5003;33067;49.296;14.470;2024-03-25T01:16:27;84;84;
47079;PMS5003;33067;49.296;14.470;2024-03-25T01:18:53;46;46;
47079;PMS5003;33067;49.296;14.470;2024-03-25T01:21:18;76;76;
47079;PMS5003;33067;49.296;14.470;2024-03-25T01:23:43;32;32;
47079;PMS5003;33067;49.296;14.470;2024-03-25T01:26:09;54;53;
47079;PMS5003;33067;49.296;14.470;2024-03-25T01:28:34;83;83;
47079;PMS5003;33067;49.296;14.470;2024-03-25T01:31:00;25;25;
47079;PMS5003;33067;49.296;14.470;2024-03-25T01:33:25;34;33;
47079;PMS5003;33067;49.296;14.470;2024-03-25T01:35:51;136;134;
47079;PMS5003;33067;49.296;14.470;2024-03-25T01:38:16;187;187;
47079;PMS5003;33067;49.296;14.470;2024-03-25T01:40:41;212;210;
47079;PMS5003;33067;49.296;14.470;2024-03-25T01:43:07;161;161;
47079;PMS5003;33067;49.296;14.470;2024-03-25T01:45:33;44;43;
47079;PMS5003;33067;49.296;14.470;2024-03-25T01:47:57;25;25;
47079;PMS5003;33067;49.296;14.470;2024-03-25T01:50:23;78;77;
47079;PMS5003;33067;49.296;14.470;2024-03-25T01:52:48;22;22;
47079;PMS5003;33067;49.296;14.470;2024-03-25T01:55:14;87;87;
47079;PMS5003;33067;49.296;14.470;2024-03-25T01:57:39;90;90;
47079;PMS5003;33067;49.296;14.470;2024-03-25T02:00:05;12;11;
47079;PMS5003;33067;49.296;14.470;2024-03-25T02:02:30;52;52;
47079;PMS5003;33067;49.296;14.470;2024-03-25T02:04:55;46;46;
47079;PMS5003;33067;49.296;14.470;2024-03-25T02:07:21;12;12;
47079;PMS5003;33067;49.296;14.470;2024-03-25T02:09:47;46;43;
47079;PMS5003;33067;49.296;14.470;2024-03-25T02:12:12;14;12;
47079;PMS5003;33067;49.296;14.470;2024-03-25T02:14:38;25;25;
47079;PMS5003;33067;49.296;14.470;2024-03-25T02:17:03;38;38;
47079;PMS5003;33067;49.296;14.470;2024-03-25T02:19:29;58;58;
47079;PMS5003;33067;49.296;14.470;2024-03-25T02:21:54;87;87;
47079;PMS5003;33067;49.296;14.470;2024-03-25T02:24:19;20;20;
47079;PMS5003;33067;49.296;14.470;2024-03-25T02:26:45;46;45;
47079;PMS5003;33067;49.296;14.470;2024-03-25T02:29:10;45;44;
47079;PMS5003;33067;49.296;14.470;2024-03-25T02:31:36;66;66;
47079;PMS5003;33067;49.296;14.470;2024-03-25T02:34:01;24;24;
47079;PMS5003;33067;49.296;14.470;2024-03-25T02:36:27;72;72;
47079;PMS5003;33067;49.296;14.470;2024-03-25T02:38:53;14;14;
47079;PMS5003;33067;49.296;14.470;2024-03-25T02:41:18;21;21;
47079;PMS5003;33067;49.296;14.470;2024-03-25T02:43:44;34;34;
47079;PMS5003;33067;49.296;14.470;2024-03-25T02:46:09;10;10;
47079;PMS5003;33067;49.296;14.470;2024-03-25T02:48:34;5;5;
47079;PMS5003;33067;49.296;14.470;2024-03-25T02:51:00;17;17;
47079;PMS5003;33067;49.296;14.470;2024-03-25T02:53:25;22;22;
47079;PMS5003;33067;49.296;14.470;2024-03-25T02:55:51;82;81;
47079;PMS5003;33067;49.296;14.470;2024-03-25T02:58:17;31;28;
47079;PMS5003;33067;49.296;14.470;2024-03-25T03:00:42;74;71;
47079;PMS5003;33067;49.296;14.470;2024-03-25T03:03:08;102;101;
47079;PMS5003;33067;49.296;14.470;2024-03-25T03:05:33;69;69;
47079;PMS5003;33067;49.296;14.470;2024-03-25T03:07:58;59;57;
47079;PMS5003;33067;49.296;14.470;2024-03-25T03:12:59;4;4;
47079;PMS5003;33067;49.296;14.470;2024-03-25T03:15:25;15;15;
47079;PMS5003;33067;49.296;14.470;2024-03-25T03:17:50;11;11;
47079;PMS5003;33067;49.296;14.470;2024-03-25T03:20:16;11;11;
47079;PMS5003;33067;49.296;14.470;2024-03-25T03:22:41;43;43;
47079;PMS5003;33067;49.296;14.470;2024-03-25T03:25:07;21;21;
47079;PMS5003;33067;49.296;14.470;2024-03-25T03:27:32;69;68;
47079;PMS5003;33067;49.296;14.470;2024-03-25T03:29:57;18;18;
47079;PMS5003;33067;49.296;14.470;2024-03-25T03:32:23;14;12;
47079;PMS5003;33067;49.296;14.470;2024-03-25T03:34:48;10;9;
47079;PMS5003;33067;49.296;14.470;2024-03-25T03:37:13;12;12;
47079;PMS5003;33067;49.296;14.470;2024-03-25T03:39:39;9;8;
47079;PMS5003;33067;49.296;14.470;2024-03-25T03:42:04;83;83;
47079;PMS5003;33067;49.296;14.470;2024-03-25T03:44:29;9;9;
47079;PMS5003;33067;49.296;14.470;2024-03-25T03:46:54;8;8;
47079;PMS5003;33067;49.296;14.470;2024-03-25T03:49:20;17;16;
47079;PMS5003;33067;49.296;14.470;2024-03-25T03:51:45;23;23;
47079;PMS5003;33067;49.296;14.470;2024-03-25T03:54:11;9;9;
47079;PMS5003;33067;49.296;14.470;2024-03-25T03:56:36;24;22;
47079;PMS5003;33067;49.296;14.470;2024-03-25T03:59:02;23;22;
47079;PMS5003;33067;49.296;14.470;2024-03-25T04:01:27;43;42;
47079;PMS5003;33067;49.296;14.470;2024-03-25T04:03:53;56;55;
47079;PMS5003;33067;49.296;14.470;2024-03-25T04:06:18;10;9;
47079;PMS5003;33067;49.296;14.470;2024-03-25T04:08:43;22;22;
47079;PMS5003;33067;49.296;14.470;2024-03-25T04:11:09;8;8;
47079;PMS5003;33067;49.296;14.470;2024-03-25T04:13:34;10;9;
47079;PMS5003;33067;49.296;14.470;2024-03-25T04:16:00;9;9;
47079;PMS5003;33067;49.296;14.470;2024-03-25T04:18:25;10;9;
47079;PMS5003;33067;49.296;14.470;2024-03-25T04:20:52;9;9;
47079;PMS5003;33067;49.296;14.470;2024-03-25T04:23:16;12;9;
47079;PMS5003;33067;49.296;14.470;2024-03-25T04:25:41;7;7;
47079;PMS5003;33067;49.296;14.470;2024-03-25T04:28:10;8;8;
47079;PMS5003;33067;49.296;14.470;2024-03-25T04:30:32;10;10;
47079;PMS5003;33067;49.296;14.470;2024-03-25T04:32:58;11;7;
47079;PMS5003;33067;49.296;14.470;2024-03-25T04:35:23;12;11;
47079;PMS5003;33067;49.296;14.470;2024-03-25T04:37:58;14;11;
47079;PMS5003;33067;49.296;14.470;2024-03-25T04:40:14;8;7;
47079;PMS5003;33067;49.296;14.470;2024-03-25T04:42:39;7;5;
47079;PMS5003;33067;49.296;14.470;2024-03-25T04:45:05;5;5;
47079;PMS5003;33067;49.296;14.470;2024-03-25T04:47:30;10;9;
47079;PMS5003;33067;49.296;14.470;2024-03-25T04:49:56;8;7;
47079;PMS5003;33067;49.296;14.470;2024-03-25T04:52:21;9;9;
47079;PMS5003;33067;49.296;14.470;2024-03-25T04:54:48;8;8;
47079;PMS5003;33067;49.296;14.470;2024-03-25T04:57:12;7;7;
47079;PMS5003;33067;49.296;14.470;2024-03-25T04:59:38;8;8;
47079;PMS5003;33067;49.296;14.470;2024-03-25T05:02:03;7;7;
47079;PMS5003;33067;49.296;14.470;2024-03-25T05:04:28;7;7;
47079;PMS5003;33067;49.296;14.470;2024-03-25T05:06:54;9;6;
47079;PMS5003;33067;49.296;14.470;2024-03-25T05:09:19;8;8;
47079;PMS5003;33067;49.296;14.470;2024-03-25T05:11:46;9;8;
47079;PMS5003;33067;49.296;14.470;2024-03-25T05:14:10;7;7;
47079;PMS5003;33067;49.296;14.470;2024-03-25T05:16:36;10;9;
47079;PMS5003;33067;49.296;14.470;2024-03-25T05:19:01;9;7;
47079;PMS5003;33067;49.296;14.470;2024-03-25T05:21:27;8;8;
47079;PMS5003;33067;49.296;14.470;2024-03-25T05:23:53;8;8;
47079;PMS5003;33067;49.296;14.470;2024-03-25T05:26:18;9;9;
47079;PMS5003;33067;49.296;14.470;2024-03-25T05:28:43;9;9;
47079;PMS5003;33067;49.296;14.470;2024-03-25T05:31:09;8;8;
47079;PMS5003;33067;49.296;14.470;2024-03-25T05:33:34;10;10;
47079;PMS5003;33067;49.296;14.470;2024-03-25T05:35:59;10;10;
47079;PMS5003;33067;49.296;14.470;2024-03-25T05:38:25;9;9;
47079;PMS5003;33067;49.296;14.470;2024-03-25T05:40:50;9;8;
47079;PMS5003;33067;49.296;14.470;2024-03-25T05:43:16;12;9;
47079;PMS5003;33067;49.296;14.470;2024-03-25T05:45:41;8;8;
47079;PMS5003;33067;49.296;14.470;2024-03-25T05:48:06;11;10;
47079;PMS5003;33067;49.296;14.470;2024-03-25T05:50:32;9;8;
47079;PMS5003;33067;49.296;14.470;2024-03-25T05:52:57;7;7;
47079;PMS5003;33067;49.296;14.470;2024-03-25T05:55:23;10;9;
47079;PMS5003;33067;49.296;14.470;2024-03-25T05:57:48;11;9;
47079;PMS5003;33067;49.296;14.470;2024-03-25T06:00:14;10;8;
47079;PMS5003;33067;49.296;14.470;2024-03-25T06:02:39;10;10;
47079;PMS5003;33067;49.296;14.470;2024-03-25T06:05:05;10;9;
47079;PMS5003;33067;49.296;14.470;2024-03-25T06:07:30;11;10;
47079;PMS5003;33067;49.296;14.470;2024-03-25T06:09:55;8;8;
47079;PMS5003;33067;49.296;14.470;2024-03-25T06:12:21;11;11;
47079;PMS5003;33067;49.296;14.470;2024-03-25T06:14:46;8;8;
47079;PMS5003;33067;49.296;14.470;2024-03-25T06:17:12;8;8;
47079;PMS5003;33067;49.296;14.470;2024-03-25T06:19:37;8;8;
47079;PMS5003;33067;49.296;14.470;2024-03-25T06:22:03;11;11;
47079;PMS5003;33067;49.296;14.470;2024-03-25T06:24:28;11;10;
47079;PMS5003;33067;49.296;14.470;2024-03-25T06:26:53;10;10;
47079;PMS5003;33067;49.296;14.470;2024-03-25T06:29:19;9;8;
47079;PMS5003;33067;49.296;14.470;2024-03-25T06:31:44;9;8;
47079;PMS5003;33067;49.296;14.470;2024-03-25T06:34:10;11;8;
47079;PMS5003;33067;49.296;14.470;2024-03-25T06:36:35;9;8;
47079;PMS5003;33067;49.296;14.470;2024-03-25T06:39:01;10;10;
47079;PMS5003;33067;49.296;14.470;2024-03-25T06:41:27;9;9;
47079;PMS5003;33067;49.296;14.470;2024-03-25T06:43:52;9;9;
47079;PMS5003;33067;49.296;14.470;2024-03-25T06:46:17;9;9;
47079;PMS5003;33067;49.296;14.470;2024-03-25T06:48:43;16;14;
47079;PMS5003;33067;49.296;14.470;2024-03-25T06:51:08;15;14;
47079;PMS5003;33067;49.296;14.470;2024-03-25T06:53:34;11;11;
47079;PMS5003;33067;49.296;14.470;2024-03-25T06:55:59;10;10;
47079;PMS5003;33067;49.296;14.470;2024-03-25T06:58:26;12;12;
47079;PMS5003;33067;49.296;14.470;2024-03-25T07:00:51;21;18;
47079;PMS5003;33067;49.296;14.470;2024-03-25T07:03:16;12;10;
47079;PMS5003;33067;49.296;14.470;2024-03-25T07:05:41;12;12;
47079;PMS5003;33067;49.296;14.470;2024-03-25T07:08:06;23;23;
47079;PMS5003;33067;49.296;14.470;2024-03-25T07:10:31;12;12;
47079;PMS5003;33067;49.296;14.470;2024-03-25T07:12:57;11;9;
47079;PMS5003;33067;49.296;14.470;2024-03-25T07:15:23;24;23;
47079;PMS5003;33067;49.296;14.470;2024-03-25T07:17:48;9;8;
47079;PMS5003;33067;49.296;14.470;2024-03-25T07:20:13;10;10;
47079;PMS5003;33067;49.296;14.470;2024-03-25T07:22:38;9;9;
47079;PMS5003;33067;49.296;14.470;2024-03-25T07:25:04;9;9;
47079;PMS5003;33067;49.296;14.470;2024-03-25T07:27:29;9;8;
47079;PMS5003;33067;49.296;14.470;2024-03-25T07:29:55;10;9;
47079;PMS5003;33067;49.296;14.470;2024-03-25T07:32:21;9;9;
47079;PMS5003;33067;49.296;14.470;2024-03-25T07:34:46;9;8;
47079;PMS5003;33067;49.296;14.470;2024-03-25T07:37:11;10;10;
47079;PMS5003;33067;49.296;14.470;2024-03-25T07:39:37;8;5;
47079;PMS5003;33067;49.296;14.470;2024-03-25T07:42:02;11;8;
47079;PMS5003;33067;49.296;14.470;2024-03-25T07:44:28;11;8;
47079;PMS5003;33067;49.296;14.470;2024-03-25T07:46:53;9;8;
47079;PMS5003;33067;49.296;14.470;2024-03-25T07:49:18;8;8;
47079;PMS5003;33067;49.296;14.470;2024-03-25T07:51:44;9;9;
47079;PMS5003;33067;49.296;14.470;2024-03-25T07:54:09;9;9;
47079;PMS5003;33067;49.296;14.470;2024-03-25T07:56:35;18;18;
47079;PMS5003;33067;49.296;14.470;2024-03-25T07:59:00;16;16;
47079;PMS5003;33067;49.296;14.470;2024-03-25T08:01:25;9;9;
47079;PMS5003;33067;49.296;14.470;2024-03-25T08:03:51;12;9;
47079;PMS5003;33067;49.296;14.470;2024-03-25T08:06:16;13;12;
47079;PMS5003;33067;49.296;14.470;2024-03-25T08:08:41;9;9;
47079;PMS5003;33067;49.296;14.470;2024-03-25T08:11:07;9;8;
47079;PMS5003;33067;49.296;14.470;2024-03-25T08:13:32;10;9;
47079;PMS5003;33067;49.296;14.470;2024-03-25T08:15:58;6;6;
47079;PMS5003;33067;49.296;14.470;2024-03-25T08:18:23;10;10;
47079;PMS5003;33067;49.296;14.470;2024-03-25T08:20:48;8;6;
47079;PMS5003;33067;49.296;14.470;2024-03-25T08:23:14;10;7;
47079;PMS5003;33067;49.296;14.470;2024-03-25T08:25:39;10;10;
47079;PMS5003;33067;49.296;14.470;2024-03-25T08:28:05;10;10;
47079;PMS5003;33067;49.296;14.470;2024-03-25T08:30:30;9;9;
47079;PMS5003;33067;49.296;14.470;2024-03-25T08:32:55;7;7;
47079;PMS5003;33067;49.296;14.470;2024-03-25T08:35:21;11;10;
47079;PMS5003;33067;49.296;14.470;2024-03-25T08:37:46;9;7;
47079;PMS5003;33067;49.296;14.470;2024-03-25T08:40:11;13;10;
47079;PMS5003;33067;49.296;14.470;2024-03-25T08:42:37;11;11;
47079;PMS5003;33067;49.296;14.470;2024-03-25T08:45:02;9;9;
47079;PMS5003;33067;49.296;14.470;2024-03-25T08:47:27;6;6;
47079;PMS5003;33067;49.296;14.470;2024-03-25T08:49:53;6;6;
47079;PMS5003;33067;49.296;14.470;2024-03-25T08:52:18;11;6;
47079;PMS5003;33067;49.296;14.470;2024-03-25T08:54:44;7;7;
47079;PMS5003;33067;49.296;14.470;2024-03-25T08:57:09;7;7;
47079;PMS5003;33067;49.296;14.470;2024-03-25T08:59:35;9;9;
47079;PMS5003;33067;49.296;14.470;2024-03-25T09:02:00;6;6;
47079;PMS5003;33067;49.296;14.470;2024-03-25T09:04:25;35;28;
47079;PMS5003;33067;49.296;14.470;2024-03-25T09:06:51;15;12;
47079;PMS5003;33067;49.296;14.470;2024-03-25T09:09:17;14;12;
47079;PMS5003;33067;49.296;14.470;2024-03-25T09:11:42;14;12;
47079;PMS5003;33067;49.296;14.470;2024-03-25T09:14:07;60;52;
47079;PMS5003;33067;49.296;14.470;2024-03-25T09:16:32;17;13;
47079;PMS5003;33067;49.296;14.470;2024-03-25T09:18:58;76;72;
47079;PMS5003;33067;49.296;14.470;2024-03-25T09:21:23;31;28;
47079;PMS5003;33067;49.296;14.470;2024-03-25T09:23:48;14;12;
47079;PMS5003;33067;49.296;14.470;2024-03-25T09:26:14;15;14;
47079;PMS5003;33067;49.296;14.470;2024-03-25T09:28:39;9;9;
47079;PMS5003;33067;49.296;14.470;2024-03-25T09:31:04;20;20;
47079;PMS5003;33067;49.296;14.470;2024-03-25T09:33:29;14;11;
47079;PMS5003;33067;49.296;14.470;2024-03-25T09:35:55;63;59;
47079;PMS5003;33067;49.296;14.470;2024-03-25T09:38:21;15;15;
47079;PMS5003;33067;49.296;14.470;2024-03-25T09:40:46;13;13;
47079;PMS5003;33067;49.296;14.470;2024-03-25T09:43:12;12;11;
47079;PMS5003;33067;49.296;14.470;2024-03-25T09:45:37;9;9;
47079;PMS5003;33067;49.296;14.470;2024-03-25T09:48:02;9;7;
47079;PMS5003;33067;49.296;14.470;2024-03-25T09:50:27;9;9;
47079;PMS5003;33067;49.296;14.470;2024-03-25T09:52:53;12;10;
47079;PMS5003;33067;49.296;14.470;2024-03-25T09:55:18;7;7;
47079;PMS5003;33067;49.296;14.470;2024-03-25T09:57:44;5;5;
47079;PMS5003;33067;49.296;14.470;2024-03-25T10:00:09;11;10;
47079;PMS5003;33067;49.296;14.470;2024-03-25T10:02:35;7;6;
47079;PMS5003;33067;49.296;14.470;2024-03-25T10:05:00;12;12;
47079;PMS5003;33067;49.296;14.470;2024-03-25T10:07:25;7;7;
47079;PMS5003;33067;49.296;14.470;2024-03-25T10:09:52;5;5;
47079;PMS5003;33067;49.296;14.470;2024-03-25T10:12:16;6;6;
47079;PMS5003;33067;49.296;14.470;2024-03-25T10:14:43;7;7;
47079;PMS5003;33067;49.296;14.470;2024-03-25T10:17:07;6;6;
47079;PMS5003;33067;49.296;14.470;2024-03-25T10:19:32;10;7;
47079;PMS5003;33067;49.296;14.470;2024-03-25T10:22:01;9;9;
47079;PMS5003;33067;49.296;14.470;2024-03-25T10:24:23;11;9;
47079;PMS5003;33067;49.296;14.470;2024-03-25T10:26:49;18;14;
47079;PMS5003;33067;49.296;14.470;2024-03-25T10:29:14;33;26;
47079;PMS5003;33067;49.296;14.470;2024-03-25T10:31:39;10;10;
47079;PMS5003;33067;49.296;14.470;2024-03-25T10:34:05;11;11;
47079;PMS5003;33067;49.296;14.470;2024-03-25T10:36:29;7;7;
47079;PMS5003;33067;49.296;14.470;2024-03-25T10:38:55;6;6;
47079;PMS5003;33067;49.296;14.470;2024-03-25T10:41:20;15;14;
47079;PMS5003;33067;49.296;14.470;2024-03-25T10:43:46;10;10;
47079;PMS5003;33067;49.296;14.470;2024-03-25T10:46:11;14;12;
47079;PMS5003;33067;49.296;14.470;2024-03-25T10:48:37;14;13;
47079;PMS5003;33067;49.296;14.470;2024-03-25T10:51:01;26;23;
47079;PMS5003;33067;49.296;14.470;2024-03-25T10:53:26;38;34;
47079;PMS5003;33067;49.296;14.470;2024-03-25T10:55:52;43;41;
47079;PMS5003;33067;49.296;14.470;2024-03-25T10:58:16;23;23;
47079;PMS5003;33067;49.296;14.470;2024-03-25T11:00:42;13;13;
47079;PMS5003;33067;49.296;14.470;2024-03-25T11:03:07;14;13;
47079;PMS5003;33067;49.296;14.470;2024-03-25T11:05:33;16;16;
47079;PMS5003;33067;49.296;14.470;2024-03-25T11:07:58;36;31;
47079;PMS5003;33067;49.296;14.470;2024-03-25T11:12:49;6;6;
47079;PMS5003;33067;49.296;14.470;2024-03-25T11:15:14;14;11;
47079;PMS5003;33067;49.296;14.470;2024-03-25T11:20:06;11;11;
47079;PMS5003;33067;49.296;14.470;2024-03-25T11:22:30;10;8;
47079;PMS5003;33067;49.296;14.470;2024-03-25T11:24:56;8;8;
47079;PMS5003;33067;49.296;14.470;2024-03-25T11:27:22;10;8;
47079;PMS5003;33067;49.296;14.470;2024-03-25T11:29:46;11;11;
47079;PMS5003;33067;49.296;14.470;2024-03-25T11:32:12;15;13;
47079;PMS5003;33067;49.296;14.470;2024-03-25T11:34:37;11;8;
47079;PMS5003;33067;49.296;14.470;2024-03-25T11:37:02;5;5;
47079;PMS5003;33067;49.296;14.470;2024-03-25T11:39:28;5;5;
47079;PMS5003;33067;49.296;14.470;2024-03-25T11:41:53;6;5;
47079;PMS5003;33067;49.296;14.470;2024-03-25T11:44:19;7;6;
47079;PMS5003;33067;49.296;14.470;2024-03-25T11:46:44;3;3;
47079;PMS5003;33067;49.296;14.470;2024-03-25T11:49:11;3;3;
47079;PMS5003;33067;49.296;14.470;2024-03-25T11:51:34;7;5;
47079;PMS5003;33067;49.296;14.470;2024-03-25T11:54:02;5;5;
47079;PMS5003;33067;49.296;14.470;2024-03-25T11:56:25;6;6;
47079;PMS5003;33067;49.296;14.470;2024-03-25T11:58:51;3;3;
47079;PMS5003;33067;49.296;14.470;2024-03-25T12:01:16;5;3;
47079;PMS5003;33067;49.296;14.470;2024-03-25T12:03:41;10;10;
47079;PMS5003;33067;49.296;14.470;2024-03-25T12:06:07;10;10;
47079;PMS5003;33067;49.296;14.470;2024-03-25T12:08:32;10;10;
47079;PMS5003;33067;49.296;14.470;2024-03-25T12:10:57;10;10;
47079;PMS5003;33067;49.296;14.470;2024-03-25T12:13:23;8;8;
47079;PMS5003;33067;49.296;14.470;2024-03-25T12:15:48;5;5;
47079;PMS5003;33067;49.296;14.470;2024-03-25T12:18:13;4;4;
47079;PMS5003;33067;49.296;14.470;2024-03-25T12:20:39;9;9;
47079;PMS5003;33067;49.296;14.470;2024-03-25T12:23:04;42;40;
47079;PMS5003;33067;49.296;14.470;2024-03-25T12:25:29;29;29;
47079;PMS5003;33067;49.296;14.470;2024-03-25T12:27:55;64;63;
47079;PMS5003;33067;49.296;14.470;2024-03-25T12:30:21;32;32;
47079;PMS5003;33067;49.296;14.470;2024-03-25T12:32:45;33;30;
47079;PMS5003;33067;49.296;14.470;2024-03-25T12:35:12;121;119;
47079;PMS5003;33067;49.296;14.470;2024-03-25T12:37:37;50;48;
47079;PMS5003;33067;49.296;14.470;2024-03-25T12:40:03;85;85;
47079;PMS5003;33067;49.296;14.470;2024-03-25T12:42:28;35;35;
47079;PMS5003;33067;49.296;14.470;2024-03-25T12:44:53;47;47;
47079;PMS5003;33067;49.296;14.470;2024-03-25T12:47:19;79;77;
47079;PMS5003;33067;49.296;14.470;2024-03-25T12:49:44;42;41;
47079;PMS5003;33067;49.296;14.470;2024-03-25T12:52:09;51;48;
47079;PMS5003;33067;49.296;14.470;2024-03-25T12:54:35;31;30;
47079;PMS5003;33067;49.296;14.470;2024-03-25T12:57:00;104;104;
47079;PMS5003;33067;49.296;14.470;2024-03-25T12:59:26;45;45;
47079;PMS5003;33067;49.296;14.470;2024-03-25T13:01:51;35;35;
47079;PMS5003;33067;49.296;14.470;2024-03-25T13:04:17;74;74;
47079;PMS5003;33067;49.296;14.470;2024-03-25T13:06:42;91;90;
47079;PMS5003;33067;49.296;14.470;2024-03-25T13:09:07;57;56;
47079;PMS5003;33067;49.296;14.470;2024-03-25T13:11:33;29;29;
47079;PMS5003;33067;49.296;14.470;2024-03-25T13:13:59;34;32;
47079;PMS5003;33067;49.296;14.470;2024-03-25T13:16:24;29;28;
47079;PMS5003;33067;49.296;14.470;2024-03-25T13:18:49;30;24;
47079;PMS5003;33067;49.296;14.470;2024-03-25T13:21:15;86;84;
47079;PMS5003;33067;49.296;14.470;2024-03-25T13:23:40;39;37;
47079;PMS5003;33067;49.296;14.470;2024-03-25T13:26:06;59;59;
47079;PMS5003;33067;49.296;14.470;2024-03-25T13:28:32;29;28;
47079;PMS5003;33067;49.296;14.470;2024-03-25T13:30:56;50;50;
47079;PMS5003;33067;49.296;14.470;2024-03-25T13:33:22;44;44;
47079;PMS5003;33067;49.296;14.470;2024-03-25T13:35:47;36;36;
47079;PMS5003;33067;49.296;14.470;2024-03-25T13:38:13;13;13;
47079;PMS5003;33067;49.296;14.470;2024-03-25T13:40:38;13;10;
47079;PMS5003;33067;49.296;14.470;2024-03-25T13:43:05;7;7;
47079;PMS5003;33067;49.296;14.470;2024-03-25T13:45:30;9;9;
47079;PMS5003;33067;49.296;14.470;2024-03-25T13:47:54;19;19;
47079;PMS5003;33067;49.296;14.470;2024-03-25T13:50:21;14;14;
47079;PMS5003;33067;49.296;14.470;2024-03-25T13:52:45;19;18;
47079;PMS5003;33067;49.296;14.470;2024-03-25T13:55:13;20;15;
47079;PMS5003;33067;49.296;14.470;2024-03-25T13:57:36;10;8;
47079;PMS5003;33067;49.296;14.470;2024-03-25T14:00:01;8;8;
47079;PMS5003;33067;49.296;14.470;2024-03-25T14:02:27;15;14;
47079;PMS5003;33067;49.296;14.470;2024-03-25T14:05:06;11;9;
47079;PMS5003;33067;49.296;14.470;2024-03-25T14:07:17;15;15;
47079;PMS5003;33067;49.296;14.470;2024-03-25T14:09:42;18;17;
47079;PMS5003;33067;49.296;14.470;2024-03-25T14:12:14;7;7;
47079;PMS5003;33067;49.296;14.470;2024-03-25T14:14:34;10;8;
47079;PMS5003;33067;49.296;14.470;2024-03-25T14:16:59;13;9;
47079;PMS5003;33067;49.296;14.470;2024-03-25T14:19:24;5;5;
47079;PMS5003;33067;49.296;14.470;2024-03-25T14:21:50;5;5;
47079;PMS5003;33067;49.296;14.470;2024-03-25T14:24:15;7;7;
47079;PMS5003;33067;49.296;14.470;2024-03-25T14:26:41;8;7;
47079;PMS5003;33067;49.296;14.470;2024-03-25T14:29:06;12;12;
47079;PMS5003;33067;49.296;14.470;2024-03-25T14:31:31;14;14;
47079;PMS5003;33067;49.296;14.470;2024-03-25T14:33:57;15;14;
47079;PMS5003;33067;49.296;14.470;2024-03-25T14:36:22;16;14;
47079;PMS5003;33067;49.296;14.470;2024-03-25T14:38:47;17;17;
47079;PMS5003;33067;49.296;14.470;2024-03-25T14:41:18;13;13;
47079;PMS5003;33067;49.296;14.470;2024-03-25T14:43:39;19;16;
47079;PMS5003;33067;49.296;14.470;2024-03-25T14:46:03;8;8;
47079;PMS5003;33067;49.296;14.470;2024-03-25T14:48:29;10;10;
47079;PMS5003;33067;49.296;14.470;2024-03-25T14:50:55;12;9;
47079;PMS5003;33067;49.296;14.470;2024-03-25T14:53:20;4;4;
47079;PMS5003;33067;49.296;14.470;2024-03-25T14:55:46;8;8;
47079;PMS5003;33067;49.296;14.470;2024-03-25T14:58:11;8;7;
47079;PMS5003;33067;49.296;14.470;2024-03-25T15:00:36;6;6;
47079;PMS5003;33067;49.296;14.470;2024-03-25T15:03:01;10;10;
47079;PMS5003;33067;49.296;14.470;2024-03-25T15:05:27;14;14;
47079;PMS5003;33067;49.296;14.470;2024-03-25T15:07:53;6;6;
47079;PMS5003;33067;49.296;14.470;2024-03-25T15:10:18;5;5;
47079;PMS5003;33067;49.296;14.470;2024-03-25T15:12:45;4;4;
47079;PMS5003;33067;49.296;14.470;2024-03-25T15:15:09;6;6;
47079;PMS5003;33067;49.296;14.470;2024-03-25T15:17:34;7;6;
47079;PMS5003;33067;49.296;14.470;2024-03-25T15:20:00;9;7;
47079;PMS5003;33067;49.296;14.470;2024-03-25T15:22:25;5;4;
47079;PMS5003;33067;49.296;14.470;2024-03-25T15:24:50;6;4;
47079;PMS5003;33067;49.296;14.470;2024-03-25T15:27:16;5;5;
47079;PMS5003;33067;49.296;14.470;2024-03-25T15:29:41;6;6;
47079;PMS5003;33067;49.296;14.470;2024-03-25T15:32:06;5;5;
47079;PMS5003;33067;49.296;14.470;2024-03-25T15:34:32;4;4;
47079;PMS5003;33067;49.296;14.470;2024-03-25T15:36:57;3;3;
47079;PMS5003;33067;49.296;14.470;2024-03-25T15:39:23;5;5;
47079;PMS5003;33067;49.296;14.470;2024-03-25T15:41:47;6;4;
47079;PMS5003;33067;49.296;14.470;2024-03-25T15:44:14;8;8;
47079;PMS5003;33067;49.296;14.470;2024-03-25T15:46:38;18;18;
47079;PMS5003;33067;49.296;14.470;2024-03-25T15:49:04;8;8;
47079;PMS5003;33067;49.296;14.470;2024-03-25T15:51:30;6;6;
47079;PMS5003;33067;49.296;14.470;2024-03-25T15:53:55;8;8;
47079;PMS5003;33067;49.296;14.470;2024-03-25T15:56:20;26;25;
47079;PMS5003;33067;49.296;14.470;2024-03-25T15:58:46;11;8;
47079;PMS5003;33067;49.296;14.470;2024-03-25T16:01:11;15;13;
47079;PMS5003;33067;49.296;14.470;2024-03-25T16:03:36;8;8;
47079;PMS5003;33067;49.296;14.470;2024-03-25T16:06:02;4;4;
47079;PMS5003;33067;49.296;14.470;2024-03-25T16:08:28;6;6;